sensor_id;sensor_type;location;lat;lon;timestamp;P1;durP1;ratioP1;P2;durP2;ratioP2
45694;SDS011;31408;45.468;9.124;2023-06-19T00:00:52;12.15;;;6.25;;
45694;SDS011;31408;45.468;9.124;2023-06-19T00:03:17;13.40;;;6.88;;
45694;SDS011;31408;45.468;9.124;2023-06-19T00:05:43;10.95;;;6.70;;
45694;SDS011;31408;45.468;9.124;2023-06-19T00:08:13;10.70;;;6.30;;
45694;SDS011;31408;45.468;9.124;2023-06-19T00:10:39;8.18;;;6.05;;
45694;SDS011;31408;45.468;9.124;2023-06-19T00:13:04;13.05;;;6.53;;
45694;SDS011;31408;45.468;9.124;2023-06-19T00:15:30;13.40;;;6.57;;
45694;SDS011;31408;45.468;9.124;2023-06-19T00:18:03;11.05;;;7.05;;
45694;SDS011;31408;45.468;9.124;2023-06-19T00:20:29;13.68;;;7.10;;
45694;SDS011;31408;45.468;9.124;2023-06-19T00:22:55;13.88;;;6.10;;
45694;SDS011;31408;45.468;9.124;2023-06-19T00:25:20;11.20;;;7.10;;
45694;SDS011;31408;45.468;9.124;2023-06-19T00:27:46;15.05;;;6.05;;
45694;SDS011;31408;45.468;9.124;2023-06-19T00:30:14;12.68;;;6.65;;
45694;SDS011;31408;45.468;9.124;2023-06-19T00:32:40;12.98;;;6.93;;
45694;SDS011;31408;45.468;9.124;2023-06-19T00:35:15;12.55;;;6.43;;
45694;SDS011;31408;45.468;9.124;2023-06-19T00:37:46;12.52;;;7.20;;
45694;SDS011;31408;45.468;9.124;2023-06-19T00:40:28;13.95;;;5.93;;
45694;SDS011;31408;45.468;9.124;2023-06-19T00:42:55;11.52;;;6.47;;
45694;SDS011;31408;45.468;9.124;2023-06-19T00:45:21;15.60;;;6.95;;
45694;SDS011;31408;45.468;9.124;2023-06-19T00:47:48;10.65;;;6.47;;
45694;SDS011;31408;45.468;9.124;2023-06-19T00:50:15;12.82;;;6.53;;
45694;SDS011;31408;45.468;9.124;2023-06-19T00:52:41;12.63;;;6.00;;
45694;SDS011;31408;45.468;9.124;2023-06-19T00:55:07;12.68;;;7.03;;
45694;SDS011;31408;45.468;9.124;2023-06-19T00:57:43;11.45;;;6.40;;
45694;SDS011;31408;45.468;9.124;2023-06-19T01:00:09;15.77;;;6.78;;
45694;SDS011;31408;45.468;9.124;2023-06-19T01:02:38;12.52;;;6.85;;
45694;SDS011;31408;45.468;9.124;2023-06-19T01:05:04;13.20;;;7.00;;
45694;SDS011;31408;45.468;9.124;2023-06-19T01:07:32;11.93;;;6.88;;
45694;SDS011;31408;45.468;9.124;2023-06-19T01:10:07;14.57;;;6.47;;
45694;SDS011;31408;45.468;9.124;2023-06-19T01:12:36;14.68;;;7.07;;
45694;SDS011;31408;45.468;9.124;2023-06-19T01:15:04;11.43;;;6.18;;
45694;SDS011;31408;45.468;9.124;2023-06-19T01:17:33;13.57;;;7.15;;
45694;SDS011;31408;45.468;9.124;2023-06-19T01:20:00;10.80;;;5.78;;
45694;SDS011;31408;45.468;9.124;2023-06-19T01:22:31;12.63;;;6.65;;
45694;SDS011;31408;45.468;9.124;2023-06-19T01:24:59;11.85;;;6.43;;
45694;SDS011;31408;45.468;9.124;2023-06-19T01:27:25;11.70;;;6.43;;
45694;SDS011;31408;45.468;9.124;2023-06-19T01:29:53;12.98;;;7.05;;
45694;SDS011;31408;45.468;9.124;2023-06-19T01:32:20;14.52;;;6.95;;
45694;SDS011;31408;45.468;9.124;2023-06-19T01:34:51;12.80;;;6.50;;
45694;SDS011;31408;45.468;9.124;2023-06-19T01:37:17;11.30;;;6.93;;
45694;SDS011;31408;45.468;9.124;2023-06-19T01:39:43;12.77;;;5.72;;
45694;SDS011;31408;45.468;9.124;2023-06-19T01:42:10;14.52;;;6.53;;
45694;SDS011;31408;45.468;9.124;2023-06-19T01:44:36;14.95;;;7.13;;
45694;SDS011;31408;45.468;9.124;2023-06-19T01:47:09;12.25;;;7.53;;
45694;SDS011;31408;45.468;9.124;2023-06-19T01:49:36;11.80;;;6.28;;
45694;SDS011;31408;45.468;9.124;2023-06-19T01:52:02;9.10;;;6.40;;
45694;SDS011;31408;45.468;9.124;2023-06-19T01:54:28;11.68;;;6.18;;
45694;SDS011;31408;45.468;9.124;2023-06-19T01:56:55;12.85;;;6.68;;
45694;SDS011;31408;45.468;9.124;2023-06-19T01:59:26;11.60;;;6.65;;
45694;SDS011;31408;45.468;9.124;2023-06-19T02:01:52;12.98;;;6.82;;
45694;SDS011;31408;45.468;9.124;2023-06-19T02:04:18;8.25;;;5.65;;
45694;SDS011;31408;45.468;9.124;2023-06-19T02:06:43;8.38;;;6.00;;
45694;SDS011;31408;45.468;9.124;2023-06-19T02:09:09;13.10;;;6.63;;
45694;SDS011;31408;45.468;9.124;2023-06-19T02:11:37;13.75;;;7.18;;
45694;SDS011;31408;45.468;9.124;2023-06-19T02:14:02;16.13;;;6.78;;
45694;SDS011;31408;45.468;9.124;2023-06-19T02:16:28;11.60;;;6.25;;
45694;SDS011;31408;45.468;9.124;2023-06-19T02:18:59;15.68;;;7.35;;
45694;SDS011;31408;45.468;9.124;2023-06-19T02:21:25;11.65;;;5.82;;
45694;SDS011;31408;45.468;9.124;2023-06-19T02:23:50;12.00;;;6.45;;
45694;SDS011;31408;45.468;9.124;2023-06-19T02:26:16;10.82;;;6.00;;
45694;SDS011;31408;45.468;9.124;2023-06-19T02:28:41;12.00;;;6.78;;
45694;SDS011;31408;45.468;9.124;2023-06-19T02:31:07;10.50;;;6.55;;
45694;SDS011;31408;45.468;9.124;2023-06-19T02:33:32;14.10;;;7.30;;
45694;SDS011;31408;45.468;9.124;2023-06-19T02:35:58;11.93;;;6.43;;
45694;SDS011;31408;45.468;9.124;2023-06-19T02:38:37;12.30;;;6.95;;
45694;SDS011;31408;45.468;9.124;2023-06-19T02:41:02;11.40;;;6.53;;
45694;SDS011;31408;45.468;9.124;2023-06-19T02:43:28;12.25;;;5.45;;
45694;SDS011;31408;45.468;9.124;2023-06-19T02:45:54;11.05;;;6.00;;
45694;SDS011;31408;45.468;9.124;2023-06-19T02:48:30;12.07;;;5.82;;
45694;SDS011;31408;45.468;9.124;2023-06-19T02:50:56;13.48;;;6.60;;
45694;SDS011;31408;45.468;9.124;2023-06-19T02:53:21;11.13;;;5.90;;
45694;SDS011;31408;45.468;9.124;2023-06-19T02:55:47;11.88;;;6.70;;
45694;SDS011;31408;45.468;9.124;2023-06-19T02:58:17;11.52;;;6.45;;
45694;SDS011;31408;45.468;9.124;2023-06-19T03:00:43;9.70;;;6.00;;
45694;SDS011;31408;45.468;9.124;2023-06-19T03:03:09;8.88;;;5.70;;
45694;SDS011;31408;45.468;9.124;2023-06-19T03:05:34;10.32;;;6.03;;
45694;SDS011;31408;45.468;9.124;2023-06-19T03:08:00;10.80;;;5.80;;
45694;SDS011;31408;45.468;9.124;2023-06-19T03:10:25;11.30;;;5.22;;
45694;SDS011;31408;45.468;9.124;2023-06-19T03:12:51;9.00;;;5.80;;
45694;SDS011;31408;45.468;9.124;2023-06-19T03:15:16;8.25;;;4.82;;
45694;SDS011;31408;45.468;9.124;2023-06-19T03:17:54;10.75;;;5.40;;
45694;SDS011;31408;45.468;9.124;2023-06-19T03:20:21;6.72;;;4.57;;
45694;SDS011;31408;45.468;9.124;2023-06-19T03:22:53;7.60;;;4.90;;
45694;SDS011;31408;45.468;9.124;2023-06-19T03:25:19;11.10;;;4.72;;
45694;SDS011;31408;45.468;9.124;2023-06-19T03:27:51;8.63;;;4.95;;
45694;SDS011;31408;45.468;9.124;2023-06-19T03:30:17;10.02;;;5.13;;
45694;SDS011;31408;45.468;9.124;2023-06-19T03:32:45;7.55;;;4.55;;
45694;SDS011;31408;45.468;9.124;2023-06-19T03:35:21;9.50;;;4.68;;
45694;SDS011;31408;45.468;9.124;2023-06-19T03:37:51;6.55;;;4.15;;
45694;SDS011;31408;45.468;9.124;2023-06-19T03:40:17;9.85;;;4.70;;
45694;SDS011;31408;45.468;9.124;2023-06-19T03:42:47;6.88;;;4.05;;
45694;SDS011;31408;45.468;9.124;2023-06-19T03:45:12;8.20;;;4.57;;
45694;SDS011;31408;45.468;9.124;2023-06-19T03:50:24;5.72;;;3.90;;
45694;SDS011;31408;45.468;9.124;2023-06-19T03:52:50;6.93;;;4.40;;
45694;SDS011;31408;45.468;9.124;2023-06-19T03:55:15;9.05;;;4.30;;
45694;SDS011;31408;45.468;9.124;2023-06-19T03:57:46;7.55;;;4.57;;
45694;SDS011;31408;45.468;9.124;2023-06-19T04:00:12;7.90;;;5.10;;
45694;SDS011;31408;45.468;9.124;2023-06-19T04:02:40;12.27;;;4.78;;
45694;SDS011;31408;45.468;9.124;2023-06-19T04:05:06;9.40;;;4.20;;
45694;SDS011;31408;45.468;9.124;2023-06-19T04:07:31;6.93;;;4.38;;
45694;SDS011;31408;45.468;9.124;2023-06-19T04:09:57;11.13;;;5.03;;
45694;SDS011;31408;45.468;9.124;2023-06-19T04:12:23;7.38;;;4.47;;
45694;SDS011;31408;45.468;9.124;2023-06-19T04:14:49;8.88;;;5.70;;
45694;SDS011;31408;45.468;9.124;2023-06-19T04:17:14;8.80;;;4.97;;
45694;SDS011;31408;45.468;9.124;2023-06-19T04:19:45;8.68;;;4.35;;
45694;SDS011;31408;45.468;9.124;2023-06-19T04:22:14;10.80;;;4.38;;
45694;SDS011;31408;45.468;9.124;2023-06-19T04:24:39;8.63;;;4.53;;
45694;SDS011;31408;45.468;9.124;2023-06-19T04:27:05;6.47;;;4.53;;
45694;SDS011;31408;45.468;9.124;2023-06-19T04:29:33;11.88;;;5.28;;
45694;SDS011;31408;45.468;9.124;2023-06-19T04:31:59;8.20;;;4.68;;
45694;SDS011;31408;45.468;9.124;2023-06-19T04:34:25;10.38;;;5.35;;
45694;SDS011;31408;45.468;9.124;2023-06-19T04:36:50;16.25;;;5.35;;
45694;SDS011;31408;45.468;9.124;2023-06-19T04:39:26;10.98;;;5.82;;
45694;SDS011;31408;45.468;9.124;2023-06-19T04:41:52;8.30;;;5.43;;
45694;SDS011;31408;45.468;9.124;2023-06-19T04:44:17;13.02;;;5.72;;
45694;SDS011;31408;45.468;9.124;2023-06-19T04:46:43;13.90;;;5.53;;
45694;SDS011;31408;45.468;9.124;2023-06-19T04:49:29;8.10;;;4.50;;
45694;SDS011;31408;45.468;9.124;2023-06-19T04:51:58;7.47;;;4.95;;
45694;SDS011;31408;45.468;9.124;2023-06-19T04:54:24;16.10;;;5.30;;
45694;SDS011;31408;45.468;9.124;2023-06-19T04:56:50;6.30;;;4.28;;
45694;SDS011;31408;45.468;9.124;2023-06-19T04:59:16;10.48;;;4.32;;
45694;SDS011;31408;45.468;9.124;2023-06-19T05:01:43;6.25;;;4.05;;
45694;SDS011;31408;45.468;9.124;2023-06-19T05:04:09;7.18;;;4.28;;
45694;SDS011;31408;45.468;9.124;2023-06-19T05:06:36;7.18;;;3.90;;
45694;SDS011;31408;45.468;9.124;2023-06-19T05:09:02;7.78;;;4.10;;
45694;SDS011;31408;45.468;9.124;2023-06-19T05:11:28;9.10;;;4.18;;
45694;SDS011;31408;45.468;9.124;2023-06-19T05:13:53;7.15;;;4.15;;
45694;SDS011;31408;45.468;9.124;2023-06-19T05:16:19;7.50;;;4.03;;
45694;SDS011;31408;45.468;9.124;2023-06-19T05:18:45;7.93;;;4.03;;
45694;SDS011;31408;45.468;9.124;2023-06-19T05:21:10;5.10;;;3.63;;
45694;SDS011;31408;45.468;9.124;2023-06-19T05:23:36;7.00;;;3.65;;
45694;SDS011;31408;45.468;9.124;2023-06-19T05:26:03;5.35;;;3.70;;
45694;SDS011;31408;45.468;9.124;2023-06-19T05:28:40;4.68;;;3.25;;
45694;SDS011;31408;45.468;9.124;2023-06-19T05:31:05;4.93;;;3.15;;
45694;SDS011;31408;45.468;9.124;2023-06-19T05:33:30;6.78;;;3.70;;
45694;SDS011;31408;45.468;9.124;2023-06-19T05:35:56;7.28;;;4.00;;
45694;SDS011;31408;45.468;9.124;2023-06-19T05:38:21;9.23;;;2.92;;
45694;SDS011;31408;45.468;9.124;2023-06-19T05:40:48;7.78;;;3.97;;
45694;SDS011;31408;45.468;9.124;2023-06-19T05:43:15;5.10;;;3.25;;
45694;SDS011;31408;45.468;9.124;2023-06-19T05:45:41;6.28;;;3.85;;
45694;SDS011;31408;45.468;9.124;2023-06-19T05:48:06;4.72;;;3.30;;
45694;SDS011;31408;45.468;9.124;2023-06-19T05:50:32;6.22;;;3.95;;
45694;SDS011;31408;45.468;9.124;2023-06-19T05:52:57;4.57;;;3.13;;
45694;SDS011;31408;45.468;9.124;2023-06-19T05:55:23;11.68;;;3.90;;
45694;SDS011;31408;45.468;9.124;2023-06-19T05:57:50;7.78;;;4.03;;
45694;SDS011;31408;45.468;9.124;2023-06-19T06:00:15;4.38;;;3.08;;
45694;SDS011;31408;45.468;9.124;2023-06-19T06:02:42;6.72;;;3.92;;
45694;SDS011;31408;45.468;9.124;2023-06-19T06:05:07;9.70;;;3.83;;
45694;SDS011;31408;45.468;9.124;2023-06-19T06:07:37;4.57;;;3.63;;
45694;SDS011;31408;45.468;9.124;2023-06-19T06:10:02;6.10;;;3.53;;
45694;SDS011;31408;45.468;9.124;2023-06-19T06:12:28;6.20;;;4.10;;
45694;SDS011;31408;45.468;9.124;2023-06-19T06:14:53;9.95;;;4.75;;
45694;SDS011;31408;45.468;9.124;2023-06-19T06:17:18;7.78;;;4.47;;
45694;SDS011;31408;45.468;9.124;2023-06-19T06:19:44;11.13;;;4.95;;
45694;SDS011;31408;45.468;9.124;2023-06-19T06:22:09;10.35;;;5.10;;
45694;SDS011;31408;45.468;9.124;2023-06-19T06:24:35;8.88;;;4.65;;
45694;SDS011;31408;45.468;9.124;2023-06-19T06:27:00;9.00;;;5.45;;
45694;SDS011;31408;45.468;9.124;2023-06-19T06:29:26;11.02;;;5.07;;
45694;SDS011;31408;45.468;9.124;2023-06-19T06:31:51;11.15;;;5.35;;
45694;SDS011;31408;45.468;9.124;2023-06-19T06:34:18;11.48;;;6.22;;
45694;SDS011;31408;45.468;9.124;2023-06-19T06:36:44;11.93;;;5.75;;
45694;SDS011;31408;45.468;9.124;2023-06-19T06:39:10;14.10;;;5.15;;
45694;SDS011;31408;45.468;9.124;2023-06-19T06:41:36;13.70;;;5.35;;
45694;SDS011;31408;45.468;9.124;2023-06-19T06:44:04;12.60;;;5.13;;
45694;SDS011;31408;45.468;9.124;2023-06-19T06:46:30;11.55;;;4.40;;
45694;SDS011;31408;45.468;9.124;2023-06-19T06:48:56;7.50;;;3.85;;
45694;SDS011;31408;45.468;9.124;2023-06-19T06:51:21;10.45;;;4.65;;
45694;SDS011;31408;45.468;9.124;2023-06-19T06:53:47;6.00;;;3.75;;
45694;SDS011;31408;45.468;9.124;2023-06-19T06:56:13;5.70;;;3.85;;
45694;SDS011;31408;45.468;9.124;2023-06-19T06:58:38;9.95;;;3.83;;
45694;SDS011;31408;45.468;9.124;2023-06-19T07:01:04;5.63;;;3.50;;
45694;SDS011;31408;45.468;9.124;2023-06-19T07:03:29;9.02;;;4.88;;
45694;SDS011;31408;45.468;9.124;2023-06-19T07:05:56;11.02;;;4.78;;
45694;SDS011;31408;45.468;9.124;2023-06-19T07:08:22;8.95;;;4.63;;
45694;SDS011;31408;45.468;9.124;2023-06-19T07:10:48;11.13;;;4.22;;
45694;SDS011;31408;45.468;9.124;2023-06-19T07:13:14;12.15;;;4.32;;
45694;SDS011;31408;45.468;9.124;2023-06-19T07:15:39;7.00;;;4.50;;
45694;SDS011;31408;45.468;9.124;2023-06-19T07:18:05;7.35;;;4.22;;
45694;SDS011;31408;45.468;9.124;2023-06-19T07:20:30;12.07;;;5.47;;
45694;SDS011;31408;45.468;9.124;2023-06-19T07:22:55;9.90;;;4.50;;
45694;SDS011;31408;45.468;9.124;2023-06-19T07:25:22;11.10;;;4.47;;
45694;SDS011;31408;45.468;9.124;2023-06-19T07:27:49;11.55;;;5.13;;
45694;SDS011;31408;45.468;9.124;2023-06-19T07:30:15;10.80;;;5.07;;
45694;SDS011;31408;45.468;9.124;2023-06-19T07:32:40;11.65;;;5.20;;
45694;SDS011;31408;45.468;9.124;2023-06-19T07:35:06;11.18;;;5.43;;
45694;SDS011;31408;45.468;9.124;2023-06-19T07:37:32;15.25;;;7.55;;
45694;SDS011;31408;45.468;9.124;2023-06-19T07:39:58;12.52;;;4.97;;
45694;SDS011;31408;45.468;9.124;2023-06-19T07:42:23;12.65;;;5.05;;
45694;SDS011;31408;45.468;9.124;2023-06-19T07:44:49;11.10;;;5.47;;
45694;SDS011;31408;45.468;9.124;2023-06-19T07:47:15;11.30;;;4.78;;
45694;SDS011;31408;45.468;9.124;2023-06-19T07:49:41;13.07;;;5.88;;
45694;SDS011;31408;45.468;9.124;2023-06-19T07:52:07;13.68;;;5.53;;
45694;SDS011;31408;45.468;9.124;2023-06-19T07:54:34;8.32;;;5.15;;
45694;SDS011;31408;45.468;9.124;2023-06-19T07:57:00;10.82;;;5.65;;
45694;SDS011;31408;45.468;9.124;2023-06-19T07:59:26;9.02;;;5.40;;
45694;SDS011;31408;45.468;9.124;2023-06-19T08:01:51;8.02;;;4.80;;
45694;SDS011;31408;45.468;9.124;2023-06-19T08:04:16;11.20;;;4.75;;
45694;SDS011;31408;45.468;9.124;2023-06-19T08:06:42;10.45;;;4.82;;
45694;SDS011;31408;45.468;9.124;2023-06-19T08:09:07;9.20;;;4.88;;
45694;SDS011;31408;45.468;9.124;2023-06-19T08:11:33;9.43;;;4.47;;
45694;SDS011;31408;45.468;9.124;2023-06-19T08:13:58;11.93;;;5.47;;
45694;SDS011;31408;45.468;9.124;2023-06-19T08:16:25;10.98;;;5.68;;
45694;SDS011;31408;45.468;9.124;2023-06-19T08:18:51;8.02;;;5.22;;
45694;SDS011;31408;45.468;9.124;2023-06-19T08:21:16;6.78;;;4.10;;
45694;SDS011;31408;45.468;9.124;2023-06-19T08:23:41;9.52;;;4.50;;
45694;SDS011;31408;45.468;9.124;2023-06-19T08:26:09;9.93;;;4.65;;
45694;SDS011;31408;45.468;9.124;2023-06-19T08:28:37;8.32;;;5.22;;
45694;SDS011;31408;45.468;9.124;2023-06-19T08:31:02;10.93;;;4.57;;
45694;SDS011;31408;45.468;9.124;2023-06-19T08:33:28;12.38;;;5.20;;
45694;SDS011;31408;45.468;9.124;2023-06-19T08:35:53;8.38;;;4.93;;
45694;SDS011;31408;45.468;9.124;2023-06-19T08:38:19;9.73;;;4.97;;
45694;SDS011;31408;45.468;9.124;2023-06-19T08:40:44;9.75;;;5.63;;
45694;SDS011;31408;45.468;9.124;2023-06-19T08:43:10;10.43;;;4.82;;
45694;SDS011;31408;45.468;9.124;2023-06-19T08:45:36;9.98;;;5.38;;
45694;SDS011;31408;45.468;9.124;2023-06-19T08:48:02;8.50;;;4.68;;
45694;SDS011;31408;45.468;9.124;2023-06-19T08:50:32;6.78;;;4.18;;
45694;SDS011;31408;45.468;9.124;2023-06-19T08:52:58;7.35;;;3.67;;
45694;SDS011;31408;45.468;9.124;2023-06-19T08:55:24;7.60;;;4.20;;
45694;SDS011;31408;45.468;9.124;2023-06-19T08:57:50;7.93;;;4.35;;
45694;SDS011;31408;45.468;9.124;2023-06-19T09:00:28;10.35;;;4.97;;
45694;SDS011;31408;45.468;9.124;2023-06-19T09:03:02;10.20;;;5.30;;
45694;SDS011;31408;45.468;9.124;2023-06-19T09:07:54;5.85;;;3.85;;
45694;SDS011;31408;45.468;9.124;2023-06-19T09:10:21;13.32;;;4.65;;
45694;SDS011;31408;45.468;9.124;2023-06-19T09:15:26;6.95;;;4.65;;
45694;SDS011;31408;45.468;9.124;2023-06-19T09:18:09;7.53;;;4.03;;
45694;SDS011;31408;45.468;9.124;2023-06-19T09:20:39;7.28;;;4.05;;
45694;SDS011;31408;45.468;9.124;2023-06-19T09:23:10;6.30;;;4.13;;
45694;SDS011;31408;45.468;9.124;2023-06-19T09:26:10;5.78;;;3.92;;
45694;SDS011;31408;45.468;9.124;2023-06-19T09:28:32;5.95;;;3.58;;
45694;SDS011;31408;45.468;9.124;2023-06-19T09:30:59;5.13;;;3.75;;
45694;SDS011;31408;45.468;9.124;2023-06-19T09:33:32;6.68;;;4.38;;
45694;SDS011;31408;45.468;9.124;2023-06-19T09:35:59;8.02;;;4.50;;
45694;SDS011;31408;45.468;9.124;2023-06-19T09:38:25;9.98;;;4.20;;
45694;SDS011;31408;45.468;9.124;2023-06-19T09:40:52;7.93;;;4.18;;
45694;SDS011;31408;45.468;9.124;2023-06-19T09:43:24;6.40;;;3.63;;
45694;SDS011;31408;45.468;9.124;2023-06-19T09:45:52;9.82;;;4.22;;
45694;SDS011;31408;45.468;9.124;2023-06-19T09:48:20;10.82;;;5.05;;
45694;SDS011;31408;45.468;9.124;2023-06-19T09:50:52;8.98;;;4.75;;
45694;SDS011;31408;45.468;9.124;2023-06-19T09:53:20;6.93;;;4.40;;
45694;SDS011;31408;45.468;9.124;2023-06-19T09:55:49;9.20;;;4.55;;
45694;SDS011;31408;45.468;9.124;2023-06-19T09:58:19;7.00;;;4.07;;
45694;SDS011;31408;45.468;9.124;2023-06-19T10:00:45;9.25;;;4.72;;
45694;SDS011;31408;45.468;9.124;2023-06-19T10:03:12;7.10;;;4.97;;
45694;SDS011;31408;45.468;9.124;2023-06-19T10:05:38;8.18;;;4.15;;
45694;SDS011;31408;45.468;9.124;2023-06-19T10:08:05;7.00;;;4.28;;
45694;SDS011;31408;45.468;9.124;2023-06-19T10:10:30;6.68;;;4.07;;
45694;SDS011;31408;45.468;9.124;2023-06-19T10:13:00;11.75;;;4.13;;
45694;SDS011;31408;45.468;9.124;2023-06-19T10:15:40;5.38;;;3.88;;
45694;SDS011;31408;45.468;9.124;2023-06-19T10:18:07;6.32;;;3.78;;
45694;SDS011;31408;45.468;9.124;2023-06-19T10:20:35;6.20;;;3.95;;
45694;SDS011;31408;45.468;9.124;2023-06-19T10:23:38;6.45;;;4.10;;
45694;SDS011;31408;45.468;9.124;2023-06-19T10:26:00;6.25;;;3.60;;
45694;SDS011;31408;45.468;9.124;2023-06-19T10:28:27;10.18;;;3.78;;
45694;SDS011;31408;45.468;9.124;2023-06-19T10:31:01;5.15;;;3.58;;
45694;SDS011;31408;45.468;9.124;2023-06-19T10:33:34;6.32;;;3.08;;
45694;SDS011;31408;45.468;9.124;2023-06-19T10:36:13;12.50;;;4.20;;
45694;SDS011;31408;45.468;9.124;2023-06-19T10:38:42;4.60;;;3.20;;
45694;SDS011;31408;45.468;9.124;2023-06-19T10:41:18;7.70;;;3.63;;
45694;SDS011;31408;45.468;9.124;2023-06-19T10:44:00;6.57;;;3.15;;
45694;SDS011;31408;45.468;9.124;2023-06-19T10:46:32;7.15;;;3.25;;
45694;SDS011;31408;45.468;9.124;2023-06-19T10:48:59;5.53;;;3.60;;
45694;SDS011;31408;45.468;9.124;2023-06-19T10:51:39;5.88;;;3.50;;
45694;SDS011;31408;45.468;9.124;2023-06-19T10:54:06;3.97;;;2.75;;
45694;SDS011;31408;45.468;9.124;2023-06-19T10:56:32;5.38;;;3.53;;
45694;SDS011;31408;45.468;9.124;2023-06-19T10:59:05;5.32;;;3.45;;
45694;SDS011;31408;45.468;9.124;2023-06-19T11:01:38;14.02;;;4.13;;
45694;SDS011;31408;45.468;9.124;2023-06-19T11:04:06;4.63;;;3.70;;
45694;SDS011;31408;45.468;9.124;2023-06-19T11:06:32;8.68;;;3.80;;
45694;SDS011;31408;45.468;9.124;2023-06-19T11:08:58;5.35;;;3.58;;
45694;SDS011;31408;45.468;9.124;2023-06-19T11:11:38;8.60;;;3.78;;
45694;SDS011;31408;45.468;9.124;2023-06-19T11:14:05;7.82;;;3.40;;
45694;SDS011;31408;45.468;9.124;2023-06-19T11:16:31;7.78;;;4.50;;
45694;SDS011;31408;45.468;9.124;2023-06-19T11:18:58;4.25;;;3.22;;
45694;SDS011;31408;45.468;9.124;2023-06-19T11:21:30;7.78;;;4.28;;
45694;SDS011;31408;45.468;9.124;2023-06-19T11:24:00;7.88;;;3.92;;
45694;SDS011;31408;45.468;9.124;2023-06-19T11:26:26;6.45;;;4.10;;
45694;SDS011;31408;45.468;9.124;2023-06-19T11:28:51;5.65;;;4.40;;
45694;SDS011;31408;45.468;9.124;2023-06-19T11:31:17;9.57;;;4.03;;
45694;SDS011;31408;45.468;9.124;2023-06-19T11:33:42;10.13;;;4.50;;
45694;SDS011;31408;45.468;9.124;2023-06-19T11:36:08;10.15;;;4.13;;
45694;SDS011;31408;45.468;9.124;2023-06-19T11:38:35;5.57;;;4.25;;
45694;SDS011;31408;45.468;9.124;2023-06-19T11:41:02;7.38;;;4.80;;
45694;SDS011;31408;45.468;9.124;2023-06-19T11:43:28;11.07;;;4.65;;
45694;SDS011;31408;45.468;9.124;2023-06-19T11:46:07;9.95;;;4.70;;
45694;SDS011;31408;45.468;9.124;2023-06-19T11:48:36;9.07;;;4.53;;
45694;SDS011;31408;45.468;9.124;2023-06-19T11:51:02;7.40;;;4.18;;
45694;SDS011;31408;45.468;9.124;2023-06-19T11:53:28;7.05;;;4.03;;
45694;SDS011;31408;45.468;9.124;2023-06-19T11:55:55;9.27;;;4.43;;
45694;SDS011;31408;45.468;9.124;2023-06-19T11:58:20;6.28;;;4.38;;
45694;SDS011;31408;45.468;9.124;2023-06-19T12:00:46;6.28;;;4.07;;
45694;SDS011;31408;45.468;9.124;2023-06-19T12:03:12;9.63;;;5.03;;
45694;SDS011;31408;45.468;9.124;2023-06-19T12:05:37;9.40;;;4.97;;
45694;SDS011;31408;45.468;9.124;2023-06-19T12:08:03;6.97;;;4.57;;
45694;SDS011;31408;45.468;9.124;2023-06-19T12:10:29;6.22;;;4.40;;
45694;SDS011;31408;45.468;9.124;2023-06-19T12:12:55;8.15;;;4.47;;
45694;SDS011;31408;45.468;9.124;2023-06-19T12:15:21;7.45;;;4.30;;
45694;SDS011;31408;45.468;9.124;2023-06-19T12:17:46;7.20;;;4.07;;
45694;SDS011;31408;45.468;9.124;2023-06-19T12:20:12;8.77;;;5.00;;
45694;SDS011;31408;45.468;9.124;2023-06-19T12:22:42;11.45;;;5.15;;
45694;SDS011;31408;45.468;9.124;2023-06-19T12:25:08;7.63;;;4.55;;
45694;SDS011;31408;45.468;9.124;2023-06-19T12:27:33;9.57;;;4.75;;
45694;SDS011;31408;45.468;9.124;2023-06-19T12:29:59;8.73;;;4.55;;
45694;SDS011;31408;45.468;9.124;2023-06-19T12:32:24;9.25;;;4.47;;
45694;SDS011;31408;45.468;9.124;2023-06-19T12:34:50;6.57;;;4.63;;
45694;SDS011;31408;45.468;9.124;2023-06-19T12:37:19;8.23;;;4.82;;
45694;SDS011;31408;45.468;9.124;2023-06-19T12:39:45;12.23;;;5.03;;
45694;SDS011;31408;45.468;9.124;2023-06-19T12:42:11;9.20;;;4.75;;
45694;SDS011;31408;45.468;9.124;2023-06-19T12:44:40;8.40;;;5.45;;
45694;SDS011;31408;45.468;9.124;2023-06-19T12:47:06;9.10;;;5.53;;
45694;SDS011;31408;45.468;9.124;2023-06-19T12:49:32;8.40;;;4.50;;
45694;SDS011;31408;45.468;9.124;2023-06-19T12:51:58;9.02;;;5.15;;
45694;SDS011;31408;45.468;9.124;2023-06-19T12:54:24;13.73;;;5.40;;
45694;SDS011;31408;45.468;9.124;2023-06-19T12:56:50;13.27;;;5.00;;
45694;SDS011;31408;45.468;9.124;2023-06-19T12:59:16;9.90;;;4.63;;
45694;SDS011;31408;45.468;9.124;2023-06-19T13:01:42;7.38;;;5.03;;
45694;SDS011;31408;45.468;9.124;2023-06-19T13:04:07;7.38;;;5.13;;
45694;SDS011;31408;45.468;9.124;2023-06-19T13:06:33;7.65;;;4.50;;
45694;SDS011;31408;45.468;9.124;2023-06-19T13:08:59;6.75;;;4.53;;
45694;SDS011;31408;45.468;9.124;2023-06-19T13:11:25;9.68;;;4.93;;
45694;SDS011;31408;45.468;9.124;2023-06-19T13:13:50;9.63;;;4.80;;
45694;SDS011;31408;45.468;9.124;2023-06-19T13:16:16;7.13;;;4.10;;
45694;SDS011;31408;45.468;9.124;2023-06-19T13:18:41;16.00;;;4.85;;
45694;SDS011;31408;45.468;9.124;2023-06-19T13:21:07;9.68;;;4.55;;
45694;SDS011;31408;45.468;9.124;2023-06-19T13:23:33;9.30;;;4.45;;
45694;SDS011;31408;45.468;9.124;2023-06-19T13:25:58;9.13;;;4.50;;
45694;SDS011;31408;45.468;9.124;2023-06-19T13:28:24;8.45;;;4.25;;
45694;SDS011;31408;45.468;9.124;2023-06-19T13:30:49;6.80;;;4.07;;
45694;SDS011;31408;45.468;9.124;2023-06-19T13:33:15;5.53;;;3.85;;
45694;SDS011;31408;45.468;9.124;2023-06-19T13:35:41;5.97;;;3.80;;
45694;SDS011;31408;45.468;9.124;2023-06-19T13:38:07;8.00;;;4.50;;
45694;SDS011;31408;45.468;9.124;2023-06-19T13:40:34;7.30;;;4.30;;
45694;SDS011;31408;45.468;9.124;2023-06-19T13:43:00;19.25;;;4.85;;
45694;SDS011;31408;45.468;9.124;2023-06-19T13:45:27;6.57;;;3.83;;
45694;SDS011;31408;45.468;9.124;2023-06-19T13:47:53;12.02;;;5.55;;
45694;SDS011;31408;45.468;9.124;2023-06-19T13:50:18;10.60;;;4.75;;
45694;SDS011;31408;45.468;9.124;2023-06-19T13:52:45;7.30;;;4.13;;
45694;SDS011;31408;45.468;9.124;2023-06-19T13:55:11;6.45;;;3.72;;
45694;SDS011;31408;45.468;9.124;2023-06-19T13:57:38;19.73;;;5.53;;
45694;SDS011;31408;45.468;9.124;2023-06-19T14:00:05;9.07;;;3.70;;
45694;SDS011;31408;45.468;9.124;2023-06-19T14:02:38;8.13;;;3.92;;
45694;SDS011;31408;45.468;9.124;2023-06-19T14:05:07;13.95;;;4.40;;
45694;SDS011;31408;45.468;9.124;2023-06-19T14:07:33;5.78;;;3.92;;
45694;SDS011;31408;45.468;9.124;2023-06-19T14:10:00;6.57;;;4.18;;
45694;SDS011;31408;45.468;9.124;2023-06-19T14:12:25;7.40;;;4.30;;
45694;SDS011;31408;45.468;9.124;2023-06-19T14:14:51;6.18;;;4.15;;
45694;SDS011;31408;45.468;9.124;2023-06-19T14:17:17;5.22;;;3.95;;
45694;SDS011;31408;45.468;9.124;2023-06-19T14:19:42;7.07;;;4.15;;
45694;SDS011;31408;45.468;9.124;2023-06-19T14:22:08;8.23;;;4.43;;
45694;SDS011;31408;45.468;9.124;2023-06-19T14:24:33;8.88;;;4.68;;
45694;SDS011;31408;45.468;9.124;2023-06-19T14:26:58;8.50;;;5.63;;
45694;SDS011;31408;45.468;9.124;2023-06-19T14:29:24;5.93;;;4.07;;
45694;SDS011;31408;45.468;9.124;2023-06-19T14:31:53;5.55;;;4.07;;
45694;SDS011;31408;45.468;9.124;2023-06-19T14:34:18;8.63;;;4.70;;
45694;SDS011;31408;45.468;9.124;2023-06-19T14:36:45;8.20;;;4.20;;
45694;SDS011;31408;45.468;9.124;2023-06-19T14:39:11;9.20;;;5.10;;
45694;SDS011;31408;45.468;9.124;2023-06-19T14:41:37;6.63;;;4.13;;
45694;SDS011;31408;45.468;9.124;2023-06-19T14:44:03;16.15;;;6.53;;
45694;SDS011;31408;45.468;9.124;2023-06-19T14:46:29;11.93;;;6.65;;
45694;SDS011;31408;45.468;9.124;2023-06-19T14:48:55;9.02;;;4.72;;
45694;SDS011;31408;45.468;9.124;2023-06-19T14:51:23;10.38;;;5.25;;